Hauptseite
Satellitenwetter 15-Tage PrognosenKlimaSeewetter Wirbelstürme Blitz FlughäfenFAQ Newsletter Über uns
Wetter : Europa Afrika Nordamerika Südamerika Asien Australien-Ozeanien Andere
Sprachen Kontakt

Frankfurt, Deutschland

Breite: 50-03N, Länge: 008-36E, Höhe: 111 m


METAR: EDDF 231350Z 26003KT 230V340 CAVOK 09/05 Q1020 NOSIG
TAF: EDDF 231100Z 2312/2418 05004KT 9000 NSC BECMG 2317/2320 4500 BR BKN009 BECMG 2408/2411 35005KT

Zeit: 15:08 (14:08 UTC)

Beobachtung

Neuester Wetterbericht von vor 18 Minuten, um 13:50 UTC
Wind 3 kt aus West, variierte zwischen Südwest und Nord/Nordwest
Temperatur 9°C
Luftfeuchtigkeit 76%
Luftdruck 1020 hPa
Sichtweite 10 km oder mehr
keine Wolken unter 1500 m und keine Kumulonimbus oder Gewitterwolken

Maßeinheiten ändern

Prognose

Neuester Wetterbericht von vor 3 Stunden und 8 Minuten, um 11:00 UTC
Gültige Prognose vom 23 um 12 UTC bis 24 um 18 UTC
Wind 4 kt aus Nordost
Sichtweite: 9000 m
Übergehend zu
vom 23 um 17 UTC bis 23 um 20 UTC
Sichtweite: 4500 m
Durchbrochene Bewölkung in der Höhe von 900 ft
feuchter Dunst
Übergehend zu
vom 24 um 08 UTC bis 24 um 11 UTC
Wind 5 kt aus Nord
Die Angaben auf diesen Webseiten unterliegen einer Erklärung über den Haftungsausschluss
Wetter : Europa Afrika Nordamerika Südamerika Asien Australien-Ozeanien Andere
Satellitenwetter 15-Tage PrognosenKlimaSeewetter Wirbelstürme Blitz FlughäfenFAQ Sprachen Kontakt Newsletter Über uns